This is the latest recevied weather packets stored in our database for station/object IU1INZ-13. If no packets are shown the sender has not sent any weather packets the latest 10 day(s).
| Time | Temp. | Humidity | Pressure | Rain* | Wind** | Luminosity | Snow |
|---|---|---|---|---|---|---|---|
| 1777312832 | 23.33° C | 52% | 1015.3 hPa | 0 mm | - | - | - |
| 1777311931 | 23.89° C | 51% | 1015.3 hPa | 0 mm | - | - | - |
| 1777311041 | 23.89° C | 51% | 1015.2 hPa | 0 mm | - | - | - |
| 1777310135 | 24.44° C | 48% | 1015.1 hPa | 0 mm | - | - | - |
| 1777309234 | 24.44° C | 48% | 1015.1 hPa | 0 mm | - | - | - |
| 1777308331 | 24.44° C | 47% | 1015.2 hPa | 0 mm | - | - | - |
| 1777307435 | 25° C | 48% | 1015.2 hPa | 0 mm | - | - | - |
| 1777306530 | 25° C | 48% | 1015.2 hPa | 0 mm | - | - | - |
| 1777305633 | 25° C | 48% | 1015.3 hPa | 0 mm | - | - | - |
| 1777304730 | 25° C | 47% | 1015.3 hPa | 0 mm | - | - | - |
| 1777303834 | 25° C | 48% | 1015.5 hPa | 0 mm | - | - | - |
| 1777302931 | 25° C | 49% | 1015.6 hPa | 0 mm | - | - | - |
| 1777302039 | 25° C | 49% | 1015.7 hPa | 0 mm | - | - | - |
| 1777301134 | 25.56° C | 48% | 1015.7 hPa | 0 mm | - | - | - |
| 1777300234 | 25.56° C | 47% | 1015.9 hPa | 0 mm | - | - | - |
| 1777299343 | 25° C | 47% | 1016 hPa | 0 mm | - | - | - |
| 1777298440 | 25.56° C | 48% | 1016.2 hPa | 0 mm | - | - | - |
| 1777297536 | 25° C | 47% | 1016.5 hPa | 0 mm | - | - | - |
| 1777296643 | 24.44° C | 51% | 1016.8 hPa | 0 mm | - | - | - |
| 1777295735 | 25° C | 50% | 1016.8 hPa | 0 mm | - | - | - |
| 1777294839 | 24.44° C | 51% | 1017 hPa | 0 mm | - | - | - |
| 1777293935 | 24.44° C | 49% | 1017.2 hPa | 0 mm | - | - | - |
| 1777293042 | 25° C | 49% | 1017.2 hPa | 0 mm | - | - | - |
| 1777292134 | 23.89° C | 50% | 1017.5 hPa | 0 mm | - | - | - |
| 1777291233 | 23.89° C | 47% | 1017.8 hPa | 0 mm | - | - | - |
* Rain latest hour (hover to see other rain measurements)
** Current wind speed in m/s (hover to see current wind gust speed)